Observation data for Seymour on 05/25/2020      Previous  Date       Current Mesonet Observations  Soil Data  Daily Summary Page  Observations in Plain Language
KSE1 250500Z 33012KT 17/16 A2987 RMK A01 T01700159  RH  098%=      5-min Rain = 0.01
KSE1 250505Z 33013KT 17/16 A2987 RMK A01 T01700160  RH  098%=      5-min Rain = 0
KSE1 250510Z 33012KT 17/16 A2987 RMK A01 T01700160  RH  098%=      5-min Rain = 0.01
KSE1 250515Z 33012KT 17/16 A2988 RMK A01 T01710160  RH  098%=      5-min Rain = 0
KSE1 250520Z 34013G19KT 17/16 A2988 RMK A01 T01710160  RH  098%=      5-min Rain = 0
KSE1 250525Z 34015KT 17/16 A2989 RMK A01 T01700159  RH  097%=      5-min Rain = 0
KSE1 250530Z 34015G20KT 17/16 A2989 RMK A01 T01700158  RH  097%=      5-min Rain = 0
KSE1 250535Z 35012G17KT 17/16 A2989 RMK A01 T01700158  RH  097%=      5-min Rain = 0
KSE1 250540Z 35012G17KT 17/16 A299 RMK A01 T01700158  RH  097%=      5-min Rain = 0.01
KSE1 250545Z 36010KT 17/16 A299 RMK A01 T01710158  RH  097%=      5-min Rain = 0
KSE1 250550Z 35011G16KT 17/16 A299 RMK A01 T01700157  RH  096%=      5-min Rain = 0
KSE1 250555Z 35010KT 17/16 A299 RMK A01 T01700157  RH  096%=      5-min Rain = 0
KSE1 250600Z 35010G15KT 17/16 A2989 RMK A01 T01700156  RH  096%=      5-min Rain = 0
KSE1 250605Z 34009KT 17/16 A2989 RMK A01 T01690156  RH  096%=      5-min Rain = 0
KSE1 250610Z 33009KT 17/15 A2988 RMK A01 T01680154  RH  096%=      5-min Rain = 0
KSE1 250615Z 33011G16KT 17/15 A2988 RMK A01 T01670153  RH  095%=      5-min Rain = 0
KSE1 250620Z 33012KT 17/15 A2987 RMK A01 T01670151  RH  094%=      5-min Rain = 0.01
KSE1 250625Z 34014G19KT 17/15 A2988 RMK A01 T01650148  RH  094%=      5-min Rain = 0
KSE1 250630Z 34015G20KT 16/15 A2987 RMK A01 T01630145  RH  093%=      5-min Rain = 0
KSE1 250635Z 33011KT 16/14 A2986 RMK A01 T01610143  RH  093%=      5-min Rain = 0
KSE1 250640Z 34010G15KT 16/14 A2986 RMK A01 T01610142  RH  093%=      5-min Rain = 0
KSE1 250645Z 33008KT 16/14 A2985 RMK A01 T01610141  RH  092%=      5-min Rain = 0
KSE1 250650Z 32007KT 16/14 A2984 RMK A01 T01610140  RH  091%=      5-min Rain = 0
KSE1 250655Z 32006KT 16/14 A2983 RMK A01 T01610140  RH  091%=      5-min Rain = 0
KSE1 250700Z 33006KT 16/14 A2983 RMK A01 T01600140  RH  092%=      5-min Rain = 0
KSE1 250705Z 01009G14KT 16/14 A2981 RMK A01 T01600139  RH  091%=      5-min Rain = 0
KSE1 250710Z 03010KT 16/14 A2979 RMK A01 T01600138  RH  090%=      5-min Rain = 0
KSE1 250715Z 03009KT 16/14 A2979 RMK A01 T01590138  RH  091%=      5-min Rain = 0
KSE1 250720Z 03008KT 16/14 A2979 RMK A01 T01600139  RH  091%=      5-min Rain = 0
KSE1 250725Z 03008KT 16/14 A2978 RMK A01 T01600138  RH  091%=      5-min Rain = 0
KSE1 250730Z 04006KT 16/14 A2978 RMK A01 T01600138  RH  090%=      5-min Rain = 0
KSE1 250735Z 10002KT 16/14 A2977 RMK A01 T01600137  RH  090%=      5-min Rain = 0
KSE1 250740Z 20004KT 16/14 A2977 RMK A01 T01590138  RH  091%=      5-min Rain = 0
KSE1 250745Z 18003KT 16/14 A2977 RMK A01 T01590139  RH  092%=      5-min Rain = 0
KSE1 250750Z 10003KT 16/14 A2976 RMK A01 T01580139  RH  092%=      5-min Rain = 0
KSE1 250755Z 11005KT 16/14 A2975 RMK A01 T01570139  RH  093%=      5-min Rain = 0
KSE1 250800Z 10006KT 16/14 A2974 RMK A01 T01570140  RH  093%=      5-min Rain = 0
KSE1 250805Z 10006KT 16/14 A2973 RMK A01 T01580141  RH  093%=      5-min Rain = 0
KSE1 250810Z 08005KT 16/14 A2973 RMK A01 T01590141  RH  093%=      5-min Rain = 0
KSE1 250815Z 06005KT 16/14 A2972 RMK A01 T01620142  RH  092%=      5-min Rain = 0
KSE1 250820Z 08005KT 16/14 A2972 RMK A01 T01640141  RH  090%=      5-min Rain = 0
KSE1 250825Z 10007KT 16/14 A2972 RMK A01 T01630141  RH  090%=      5-min Rain = 0
KSE1 250830Z 06004KT 16/14 A2972 RMK A01 T01630142  RH  091%=      5-min Rain = 0
KSE1 250835Z 06004KT 17/14 A2972 RMK A01 T01650142  RH  090%=      5-min Rain = 0
KSE1 250840Z 07003KT 17/14 A2972 RMK A01 T01660141  RH  089%=      5-min Rain = 0
KSE1 250845Z 01003KT 17/14 A2972 RMK A01 T01670143  RH  090%=      5-min Rain = 0
KSE1 250850Z 34003KT 17/14 A2972 RMK A01 T01680144  RH  090%=      5-min Rain = 0
KSE1 250855Z 24007KT 17/15 A2974 RMK A01 T01670145  RH  090%=      5-min Rain = 0
KSE1 250900Z 28010G15KT 17/15 A2975 RMK A01 T01680146  RH  091%=      5-min Rain = 0
KSE1 250905Z 28005KT 17/15 A2975 RMK A01 T01670146  RH  091%=      5-min Rain = 0
KSE1 250910Z 24006KT 17/15 A2976 RMK A01 T01660146  RH  092%=      5-min Rain = 0
KSE1 250915Z 23005KT 17/15 A2976 RMK A01 T01650145  RH  092%=      5-min Rain = 0
KSE1 250920Z 24004G9KT 16/14 A2976 RMK A01 T01630144  RH  093%=      5-min Rain = 0
KSE1 250925Z 25007KT 16/14 A2976 RMK A01 T01620144  RH  093%=      5-min Rain = 0
KSE1 250930Z 29007KT 16/15 A2975 RMK A01 T01620145  RH  093%=      5-min Rain = 0
KSE1 250935Z 29005KT 16/15 A2975 RMK A01 T01620145  RH  094%=      5-min Rain = 0
KSE1 250940Z 30005KT 16/15 A2976 RMK A01 T01620145  RH  094%=      5-min Rain = 0
KSE1 250945Z 31007KT 16/15 A2976 RMK A01 T01620145  RH  094%=      5-min Rain = 0
KSE1 250950Z 32008KT 16/15 A2976 RMK A01 T01620145  RH  094%=      5-min Rain = 0
KSE1 250955Z 32004KT 16/15 A2976 RMK A01 T01620145  RH  094%=      5-min Rain = 0
KSE1 251000Z 31005KT 16/15 A2976 RMK A01 T01620145  RH  093%=      5-min Rain = 0
KSE1 251005Z 33003KT 16/15 A2976 RMK A01 T01630145  RH  093%=      5-min Rain = 0
KSE1 251010Z 36003KT 17/15 A2976 RMK A01 T01650145  RH  092%=      5-min Rain = 0
KSE1 251015Z 33005KT 17/15 A2976 RMK A01 T01660146  RH  092%=      5-min Rain = 0
KSE1 251020Z 32006KT 17/15 A2975 RMK A01 T01660146  RH  092%=      5-min Rain = 0
KSE1 251025Z 32006KT 17/15 A2975 RMK A01 T01670145  RH  091%=      5-min Rain = 0
KSE1 251030Z 32006KT 17/15 A2975 RMK A01 T01670145  RH  091%=      5-min Rain = 0
KSE1 251035Z 32004KT 17/14 A2976 RMK A01 T01670144  RH  090%=      5-min Rain = 0
KSE1 251040Z 12001KT 17/14 A2977 RMK A01 T01680143  RH  089%=      5-min Rain = 0
KSE1 251045Z 13004KT 17/14 A2978 RMK A01 T01670142  RH  089%=      5-min Rain = 0
KSE1 251050Z 13004KT 17/14 A2979 RMK A01 T01650144  RH  091%=      5-min Rain = 0
KSE1 251055Z 12002KT 16/14 A2978 RMK A01 T01640144  RH  092%=      5-min Rain = 0
KSE1 251100Z 29005KT 16/15 A2978 RMK A01 T01640145  RH  093%=      5-min Rain = 0
KSE1 251105Z 30007KT 17/15 A2978 RMK A01 T01660148  RH  094%=      5-min Rain = 0
KSE1 251110Z 29006KT 17/15 A2978 RMK A01 T01670149  RH  094%=      5-min Rain = 0
KSE1 251115Z 32004KT 17/15 A2979 RMK A01 T01690149  RH  092%=      5-min Rain = 0
KSE1 251120Z 31005KT 17/15 A298 RMK A01 T01720148  RH  090%=      5-min Rain = 0
KSE1 251125Z 31003KT 17/15 A2981 RMK A01 T01700147  RH  090%=      5-min Rain = 0
KSE1 251130Z 31006KT 17/15 A2981 RMK A01 T01700146  RH  090%=      5-min Rain = 0
KSE1 251135Z 30005KT 17/15 A2982 RMK A01 T01700145  RH  089%=      5-min Rain = 0
KSE1 251140Z 29004KT 17/15 A2983 RMK A01 T01690145  RH  089%=      5-min Rain = 0
KSE1 251145Z 31003KT 17/15 A2984 RMK A01 T01690145  RH  089%=      5-min Rain = 0
KSE1 251150Z 30006KT 17/14 A2985 RMK A01 T01690144  RH  089%=      5-min Rain = 0
KSE1 251155Z 28006KT 17/14 A2985 RMK A01 T01690144  RH  089%=      5-min Rain = 0
KSE1 251200Z 27005KT 17/15 A2986 RMK A01 T01680145  RH  090%=      5-min Rain = 0
KSE1 251205Z 28007KT 17/15 A2986 RMK A01 T01680146  RH  091%=      5-min Rain = 0
KSE1 251210Z 28005KT 17/15 A2986 RMK A01 T01680147  RH  091%=      5-min Rain = 0
KSE1 251215Z 28006KT 17/15 A2986 RMK A01 T01680147  RH  092%=      5-min Rain = 0
KSE1 251220Z 30006KT 17/15 A2986 RMK A01 T01670148  RH  093%=      5-min Rain = 0
KSE1 251225Z 31008KT 17/15 A2987 RMK A01 T01680149  RH  093%=      5-min Rain = 0
KSE1 251230Z 31010KT 17/15 A2986 RMK A01 T01690148  RH  091%=      5-min Rain = 0
KSE1 251235Z 31010KT 17/15 A2986 RMK A01 T01700147  RH  090%=      5-min Rain = 0
KSE1 251240Z 32009KT 17/15 A2986 RMK A01 T01720147  RH  089%=      5-min Rain = 0
KSE1 251245Z 32009KT 17/15 A2986 RMK A01 T01740146  RH  087%=      5-min Rain = 0
KSE1 251250Z 33009KT 18/15 A2985 RMK A01 T01750146  RH  087%=      5-min Rain = 0
KSE1 251255Z 32008KT 18/15 A2985 RMK A01 T01760147  RH  087%=      5-min Rain = 0
KSE1 251300Z 32006KT 18/15 A2985 RMK A01 T01760147  RH  087%=      5-min Rain = 0
KSE1 251305Z 32007KT 18/15 A2985 RMK A01 T01750147  RH  087%=      5-min Rain = 0
KSE1 251310Z 31007KT 18/15 A2985 RMK A01 T01750148  RH  088%=      5-min Rain = 0
KSE1 251315Z 31008KT 18/15 A2985 RMK A01 T01750147  RH  088%=      5-min Rain = 0
KSE1 251320Z 31007KT 18/15 A2985 RMK A01 T01750147  RH  088%=      5-min Rain = 0
KSE1 251325Z 32007KT 18/15 A2985 RMK A01 T01750148  RH  088%=      5-min Rain = 0
KSE1 251330Z 32006KT 18/15 A2985 RMK A01 T01750149  RH  088%=      5-min Rain = 0
KSE1 251335Z 32006KT 18/15 A2985 RMK A01 T01760149  RH  088%=      5-min Rain = 0
KSE1 251340Z 31006KT 18/15 A2986 RMK A01 T01760150  RH  089%=      5-min Rain = 0
KSE1 251345Z 31005KT 18/15 A2986 RMK A01 T01760150  RH  089%=      5-min Rain = 0
KSE1 251350Z 31005KT 18/15 A2986 RMK A01 T01770151  RH  089%=      5-min Rain = 0
KSE1 251355Z 31004KT 18/15 A2987 RMK A01 T01770151  RH  089%=      5-min Rain = 0
KSE1 251400Z 30004KT 18/15 A2987 RMK A01 T01780152  RH  089%=      5-min Rain = 0
KSE1 251405Z 31005KT 18/15 A2987 RMK A01 T01780151  RH  088%=      5-min Rain = 0
KSE1 251410Z 31005KT 18/15 A2987 RMK A01 T01790151  RH  088%=      5-min Rain = 0
KSE1 251415Z 31006KT 18/15 A2988 RMK A01 T01800152  RH  087%=      5-min Rain = 0
KSE1 251420Z 31006KT 18/15 A2988 RMK A01 T01810153  RH  087%=      5-min Rain = 0
KSE1 251425Z 31007KT 18/15 A2988 RMK A01 T01810153  RH  087%=      5-min Rain = 0
KSE1 251430Z 31007KT 18/15 A2988 RMK A01 T01810152  RH  087%=      5-min Rain = 0
KSE1 251435Z 32007KT 18/15 A2988 RMK A01 T01810152  RH  087%=      5-min Rain = 0
KSE1 251440Z 32006KT 18/15 A2988 RMK A01 T01810152  RH  087%=      5-min Rain = 0
KSE1 251445Z 32006KT 18/15 A2987 RMK A01 T01810152  RH  087%=      5-min Rain = 0
KSE1 251450Z 33004KT 18/15 A2987 RMK A01 T01830154  RH  087%=      5-min Rain = 0
KSE1 251455Z 32006KT 18/16 A2987 RMK A01 T01830155  RH  087%=      5-min Rain = 0
KSE1 251500Z 33006KT 18/15 A2987 RMK A01 T01830154  RH  087%=      5-min Rain = 0
KSE1 251505Z 34007KT 18/15 A2987 RMK A01 T01830154  RH  087%=      5-min Rain = 0
KSE1 251510Z 34007KT 18/16 A2987 RMK A01 T01840155  RH  087%=      5-min Rain = 0
KSE1 251515Z 33008KT 18/16 A2987 RMK A01 T01840155  RH  087%=      5-min Rain = 0
KSE1 251520Z 34007KT 19/16 A2987 RMK A01 T01850156  RH  087%=      5-min Rain = 0
KSE1 251525Z 33007KT 19/16 A2987 RMK A01 T01870157  RH  087%=      5-min Rain = 0
KSE1 251530Z 34007KT 19/16 A2987 RMK A01 T01870156  RH  086%=      5-min Rain = 0
KSE1 251535Z 34007KT 19/16 A2987 RMK A01 T01880157  RH  086%=      5-min Rain = 0
KSE1 251540Z 34006KT 19/16 A2987 RMK A01 T01890157  RH  086%=      5-min Rain = 0
KSE1 251545Z 32005KT 19/16 A2988 RMK A01 T01910158  RH  085%=      5-min Rain = 0
KSE1 251550Z 31006KT 19/16 A2988 RMK A01 T01930159  RH  085%=      5-min Rain = 0
KSE1 251555Z 32005KT 19/16 A2988 RMK A01 T01940159  RH  084%=      5-min Rain = 0
KSE1 251600Z 31006KT 20/16 A2988 RMK A01 T01960159  RH  083%=      5-min Rain = 0
KSE1 251605Z 33006KT 20/16 A2988 RMK A01 T01970158  RH  082%=      5-min Rain = 0
KSE1 251610Z 33008KT 20/15 A2987 RMK A01 T01980150  RH  077%=      5-min Rain = 0
KSE1 251615Z 33009KT 20/15 A2987 RMK A01 T01990152  RH  077%=      5-min Rain = 0
KSE1 251620Z 34008KT 20/15 A2988 RMK A01 T01990152  RH  078%=      5-min Rain = 0
KSE1 251625Z 33008KT 20/15 A2988 RMK A01 T01990153  RH  078%=      5-min Rain = 0
KSE1 251630Z 33008KT 20/16 A2988 RMK A01 T02000155  RH  079%=      5-min Rain = 0
KSE1 251635Z 34009KT 20/15 A2988 RMK A01 T02000154  RH  078%=      5-min Rain = 0
KSE1 251640Z 33008KT 20/16 A2988 RMK A01 T02000155  RH  079%=      5-min Rain = 0
KSE1 251645Z 34008KT 20/16 A2988 RMK A01 T02020156  RH  079%=      5-min Rain = 0
KSE1 251650Z 33008KT 20/16 A2989 RMK A01 T02030156  RH  078%=      5-min Rain = 0
KSE1 251655Z 33009KT 20/16 A2989 RMK A01 T02030155  RH  078%=      5-min Rain = 0
KSE1 251700Z 33010KT 20/15 A2989 RMK A01 T02030153  RH  077%=      5-min Rain = 0
KSE1 251705Z 35009KT 20/15 A2989 RMK A01 T02030153  RH  076%=      5-min Rain = 0
KSE1 251710Z 34009KT 20/15 A2989 RMK A01 T02030152  RH  076%=      5-min Rain = 0
KSE1 251715Z 33009KT 20/15 A2989 RMK A01 T02040153  RH  076%=      5-min Rain = 0
KSE1 251720Z 34011KT 20/15 A2989 RMK A01 T02040151  RH  075%=      5-min Rain = 0
KSE1 251725Z 33010KT 20/15 A2989 RMK A01 T02040151  RH  075%=      5-min Rain = 0
KSE1 251730Z 33010KT 21/15 A2989 RMK A01 T02060153  RH  075%=      5-min Rain = 0
KSE1 251735Z 32010KT 21/16 A2988 RMK A01 T02050157  RH  077%=      5-min Rain = 0
KSE1 251740Z 32011KT 20/16 A2988 RMK A01 T02040157  RH  078%=      5-min Rain = 0
KSE1 251745Z 32011KT 21/16 A2988 RMK A01 T02050157  RH  078%=      5-min Rain = 0
KSE1 251750Z 33010KT 20/15 A2988 RMK A01 T02040154  RH  077%=      5-min Rain = 0
KSE1 251755Z 31011KT 20/15 A2988 RMK A01 T02040153  RH  076%=      5-min Rain = 0
KSE1 251800Z 32010KT 21/15 A2988 RMK A01 T02060154  RH  076%=      5-min Rain = 0
KSE1 251805Z 32010KT 21/15 A2988 RMK A01 T02050152  RH  075%=      5-min Rain = 0
KSE1 251810Z 32009KT 21/15 A2988 RMK A01 T02060152  RH  074%=      5-min Rain = 0
KSE1 251815Z 32009KT 21/15 A2988 RMK A01 T02050150  RH  074%=      5-min Rain = 0
KSE1 251820Z 31009KT 21/15 A2988 RMK A01 T02060150  RH  073%=      5-min Rain = 0
KSE1 251825Z 32009KT 21/15 A2988 RMK A01 T02070150  RH  073%=      5-min Rain = 0
KSE1 251830Z 32009KT 21/15 A2987 RMK A01 T02070150  RH  073%=      5-min Rain = 0
KSE1 251835Z 33009KT 21/15 A2987 RMK A01 T02080149  RH  072%=      5-min Rain = 0
KSE1 251840Z 32009KT 21/15 A2987 RMK A01 T02090150  RH  072%=      5-min Rain = 0
KSE1 251845Z 33009KT 21/15 A2987 RMK A01 T02110150  RH  071%=      5-min Rain = 0
KSE1 251850Z 34009KT 21/15 A2987 RMK A01 T02090148  RH  071%=      5-min Rain = 0
KSE1 251855Z 32009KT 21/15 A2987 RMK A01 T02110149  RH  071%=      5-min Rain = 0
KSE1 251900Z 33010KT 21/15 A2987 RMK A01 T02120148  RH  070%=      5-min Rain = 0
KSE1 251905Z 32010KT 21/15 A2987 RMK A01 T02120147  RH  069%=      5-min Rain = 0
KSE1 251910Z 33010KT 21/15 A2987 RMK A01 T02130148  RH  069%=      5-min Rain = 0
KSE1 251915Z 33011KT 21/15 A2987 RMK A01 T02130147  RH  069%=      5-min Rain = 0
KSE1 251920Z 34010KT 21/15 A2987 RMK A01 T02140148  RH  069%=      5-min Rain = 0
KSE1 251925Z 34011KT 21/15 A2987 RMK A01 T02130145  RH  068%=      5-min Rain = 0
KSE1 251930Z 34011KT 22/15 A2987 RMK A01 T02150147  RH  068%=      5-min Rain = 0
KSE1 251935Z 34010KT 22/15 A2987 RMK A01 T02170149  RH  069%=      5-min Rain = 0
KSE1 251940Z 34011KT 22/15 A2987 RMK A01 T02180149  RH  068%=      5-min Rain = 0
KSE1 251945Z 33009KT 22/15 A2987 RMK A01 T02180150  RH  068%=      5-min Rain = 0
KSE1 251950Z 34010KT 22/15 A2987 RMK A01 T02180150  RH  068%=      5-min Rain = 0
KSE1 251955Z 33011KT 22/15 A2987 RMK A01 T02180148  RH  068%=      5-min Rain = 0
KSE1 252000Z 34010KT 22/15 A2986 RMK A01 T02180150  RH  068%=      5-min Rain = 0
KSE1 252005Z 35011KT 22/15 A2986 RMK A01 T02180149  RH  068%=      5-min Rain = 0
KSE1 252010Z 35011KT 22/15 A2986 RMK A01 T02160146  RH  067%=      5-min Rain = 0
KSE1 252015Z 34009KT 22/15 A2986 RMK A01 T02190149  RH  067%=      5-min Rain = 0
KSE1 252020Z 36010KT 22/15 A2986 RMK A01 T02190150  RH  068%=      5-min Rain = 0
KSE1 252025Z 34010KT 22/15 A2986 RMK A01 T02180148  RH  067%=      5-min Rain = 0
KSE1 252030Z 32011KT 22/15 A2986 RMK A01 T02190148  RH  067%=      5-min Rain = 0
KSE1 252035Z 34010G15KT 22/15 A2986 RMK A01 T02210150  RH  067%=      5-min Rain = 0
KSE1 252040Z 36010KT 22/16 A2986 RMK A01 T02240156  RH  068%=      5-min Rain = 0
KSE1 252045Z 35010KT 22/15 A2986 RMK A01 T02230152  RH  067%=      5-min Rain = 0
KSE1 252050Z 00012KT 22/15 A2986 RMK A01 T02220154  RH  068%=      5-min Rain = 0
KSE1 252055Z 35011KT 22/16 A2985 RMK A01 T02220155  RH  069%=      5-min Rain = 0
KSE1 252100Z 35010G15KT 23/16 A2985 RMK A01 T02270156  RH  067%=      5-min Rain = 0
KSE1 252105Z 34011G16KT 23/16 A2985 RMK A01 T02270155  RH  067%=      5-min Rain = 0
KSE1 252110Z 35011KT 23/16 A2985 RMK A01 T02280156  RH  067%=      5-min Rain = 0
KSE1 252115Z 34011KT 23/15 A2985 RMK A01 T02260154  RH  067%=      5-min Rain = 0
KSE1 252120Z 34011G16KT 23/16 A2985 RMK A01 T02280157  RH  067%=      5-min Rain = 0
KSE1 252125Z 35010KT 23/16 A2985 RMK A01 T02250156  RH  068%=      5-min Rain = 0
KSE1 252130Z 36011KT 23/16 A2985 RMK A01 T02300156  RH  066%=      5-min Rain = 0
KSE1 252135Z 34011KT 23/16 A2985 RMK A01 T02330159  RH  066%=      5-min Rain = 0
KSE1 252140Z 33012KT 23/16 A2985 RMK A01 T02330155  RH  064%=      5-min Rain = 0
KSE1 252145Z 34011G17KT 23/16 A2985 RMK A01 T02300155  RH  066%=      5-min Rain = 0
KSE1 252150Z 36011KT 23/16 A2985 RMK A01 T02290157  RH  067%=      5-min Rain = 0
KSE1 252155Z 35011KT 23/16 A2985 RMK A01 T02310156  RH  065%=      5-min Rain = 0
KSE1 252200Z 35012G17KT 23/15 A2985 RMK A01 T02280154  RH  066%=      5-min Rain = 0
KSE1 252205Z 35012KT 23/15 A2985 RMK A01 T02260153  RH  066%=      5-min Rain = 0
KSE1 252210Z 35009KT 23/15 A2985 RMK A01 T02250153  RH  067%=      5-min Rain = 0
KSE1 252215Z 35011G17KT 23/15 A2985 RMK A01 T02290153  RH  065%=      5-min Rain = 0
KSE1 252220Z 34011KT 23/15 A2985 RMK A01 T02270152  RH  065%=      5-min Rain = 0
KSE1 252225Z 33013G18KT 23/15 A2984 RMK A01 T02250149  RH  065%=      5-min Rain = 0
KSE1 252230Z 34012KT 22/15 A2984 RMK A01 T02230150  RH  066%=      5-min Rain = 0
KSE1 252235Z 34012KT 22/15 A2984 RMK A01 T02230149  RH  065%=      5-min Rain = 0
KSE1 252240Z 34013KT 23/15 A2984 RMK A01 T02290151  RH  064%=      5-min Rain = 0
KSE1 252245Z 35012KT 22/15 A2984 RMK A01 T02240152  RH  067%=      5-min Rain = 0
KSE1 252250Z 36011KT 22/15 A2985 RMK A01 T02240152  RH  067%=      5-min Rain = 0
KSE1 252255Z 35010KT 23/15 A2985 RMK A01 T02250151  RH  066%=      5-min Rain = 0
KSE1 252300Z 35011KT 23/15 A2985 RMK A01 T02260152  RH  066%=      5-min Rain = 0
KSE1 252305Z 35012KT 23/15 A2985 RMK A01 T02290150  RH  064%=      5-min Rain = 0
KSE1 252310Z 36012KT 23/15 A2985 RMK A01 T02260149  RH  065%=      5-min Rain = 0
KSE1 252315Z 36010G15KT 23/15 A2985 RMK A01 T02270148  RH  064%=      5-min Rain = 0
KSE1 252320Z 36012KT 22/15 A2985 RMK A01 T02200147  RH  066%=      5-min Rain = 0
KSE1 252325Z 00012KT 22/15 A2985 RMK A01 T02240149  RH  065%=      5-min Rain = 0
KSE1 252330Z 35012KT 23/15 A2985 RMK A01 T02290150  RH  064%=      5-min Rain = 0
KSE1 252335Z 35012KT 23/15 A2984 RMK A01 T02310151  RH  063%=      5-min Rain = 0
KSE1 252340Z 34011KT 23/15 A2984 RMK A01 T02300149  RH  063%=      5-min Rain = 0
KSE1 252345Z 35011KT 23/15 A2985 RMK A01 T02310153  RH  065%=      5-min Rain = 0
KSE1 252350Z 35011KT 23/15 A2985 RMK A01 T02300152  RH  064%=      5-min Rain = 0
KSE1 252355Z 00011KT 23/15 A2985 RMK A01 T02290150  RH  064%=      5-min Rain = 0
KSE1 260000Z 35009KT 23/15 A2985 RMK A01 T02290154  RH  065%=      5-min Rain = 0
KSE1 260005Z 36012KT 22/15 A2985 RMK A01 T02240149  RH  065%=      5-min Rain = 0
KSE1 260010Z 36010KT 22/15 A2986 RMK A01 T02210150  RH  067%=      5-min Rain = 0
KSE1 260015Z 00011KT 22/15 A2986 RMK A01 T02200148  RH  066%=      5-min Rain = 0
KSE1 260020Z 35011KT 22/15 A2986 RMK A01 T02190149  RH  067%=      5-min Rain = 0
KSE1 260025Z 36011KT 22/15 A2987 RMK A01 T02180149  RH  068%=      5-min Rain = 0
KSE1 260030Z 35010KT 22/15 A2987 RMK A01 T02170150  RH  069%=      5-min Rain = 0
KSE1 260035Z 34010KT 22/15 A2987 RMK A01 T02170150  RH  069%=      5-min Rain = 0
KSE1 260040Z 35009KT 22/15 A2987 RMK A01 T02170151  RH  069%=      5-min Rain = 0
KSE1 260045Z 35009KT 22/15 A2987 RMK A01 T02180151  RH  069%=      5-min Rain = 0
KSE1 260050Z 35009KT 22/15 A2987 RMK A01 T02160151  RH  069%=      5-min Rain = 0
KSE1 260055Z 00009KT 22/15 A2987 RMK A01 T02150150  RH  070%=      5-min Rain = 0
KSE1 260100Z 36009KT 21/15 A2988 RMK A01 T02130150  RH  071%=      5-min Rain = 0
KSE1 260105Z 00007KT 21/15 A2988 RMK A01 T02110152  RH  072%=      5-min Rain = 0
KSE1 260110Z 00007KT 21/15 A2988 RMK A01 T02090152  RH  073%=      5-min Rain = 0
KSE1 260115Z 36007KT 21/15 A2988 RMK A01 T02070153  RH  074%=      5-min Rain = 0
KSE1 260120Z 00007KT 21/15 A2988 RMK A01 T02060152  RH  074%=      5-min Rain = 0
KSE1 260125Z 01007KT 20/15 A2988 RMK A01 T02040153  RH  076%=      5-min Rain = 0
KSE1 260130Z 01007KT 20/15 A2989 RMK A01 T02020153  RH  077%=      5-min Rain = 0
KSE1 260135Z 00007KT 20/15 A2989 RMK A01 T02010154  RH  078%=      5-min Rain = 0
KSE1 260140Z 00008KT 20/15 A2989 RMK A01 T02030153  RH  077%=      5-min Rain = 0
KSE1 260145Z 36008KT 20/15 A2989 RMK A01 T02040152  RH  075%=      5-min Rain = 0
KSE1 260150Z 36007KT 21/15 A2989 RMK A01 T02050152  RH  075%=      5-min Rain = 0
KSE1 260155Z 35006KT 20/15 A2989 RMK A01 T02040153  RH  076%=      5-min Rain = 0
KSE1 260200Z 35006KT 20/15 A2989 RMK A01 T02030154  RH  076%=      5-min Rain = 0
KSE1 260205Z 34005KT 20/15 A2989 RMK A01 T02020154  RH  078%=      5-min Rain = 0
KSE1 260210Z 33005KT 20/15 A299 RMK A01 T02010154  RH  078%=      5-min Rain = 0
KSE1 260215Z 33005KT 20/15 A299 RMK A01 T02020154  RH  077%=      5-min Rain = 0
KSE1 260220Z 33005KT 20/15 A299 RMK A01 T02020153  RH  077%=      5-min Rain = 0
KSE1 260225Z 34005KT 20/15 A299 RMK A01 T02020154  RH  078%=      5-min Rain = 0
KSE1 260230Z 34006KT 20/15 A299 RMK A01 T02030154  RH  077%=      5-min Rain = 0
KSE1 260235Z 35010KT 20/15 A299 RMK A01 T02040151  RH  075%=      5-min Rain = 0
KSE1 260240Z 35011G16KT 20/15 A299 RMK A01 T02040149  RH  074%=      5-min Rain = 0
KSE1 260245Z 35012G17KT 20/15 A2991 RMK A01 T02030148  RH  074%=      5-min Rain = 0
KSE1 260250Z 35012G18KT 20/15 A2991 RMK A01 T02020147  RH  074%=      5-min Rain = 0
KSE1 260255Z 35014G19KT 20/15 A2991 RMK A01 T02010145  RH  073%=      5-min Rain = 0
KSE1 260300Z 34013G19KT 20/14 A2991 RMK A01 T02000144  RH  073%=      5-min Rain = 0
KSE1 260305Z 35012KT 20/14 A2991 RMK A01 T01980144  RH  074%=      5-min Rain = 0
KSE1 260310Z 35013KT 20/14 A2991 RMK A01 T01970143  RH  074%=      5-min Rain = 0
KSE1 260315Z 35011KT 20/14 A2992 RMK A01 T01950142  RH  075%=      5-min Rain = 0
KSE1 260320Z 35012KT 19/14 A2992 RMK A01 T01940141  RH  075%=      5-min Rain = 0
KSE1 260325Z 35010KT 19/14 A2992 RMK A01 T01930140  RH  074%=      5-min Rain = 0
KSE1 260330Z 35009KT 19/14 A2993 RMK A01 T01920140  RH  075%=      5-min Rain = 0
KSE1 260335Z 35010KT 19/14 A2993 RMK A01 T01900140  RH  076%=      5-min Rain = 0
KSE1 260340Z 35009KT 19/14 A2993 RMK A01 T01900139  RH  076%=      5-min Rain = 0
KSE1 260345Z 35009KT 19/14 A2993 RMK A01 T01890138  RH  075%=      5-min Rain = 0
KSE1 260350Z 36008KT 19/14 A2993 RMK A01 T01880139  RH  076%=      5-min Rain = 0
KSE1 260355Z 35008G13KT 19/14 A2993 RMK A01 T01880138  RH  076%=      5-min Rain = 0
KSE1 260400Z 35008KT 19/14 A2994 RMK A01 T01870137  RH  076%=      5-min Rain = 0
KSE1 260405Z 35009KT 19/14 A2993 RMK A01 T01870136  RH  075%=      5-min Rain = 0
KSE1 260410Z 35009KT 19/14 A2993 RMK A01 T01870135  RH  075%=      5-min Rain = 0
KSE1 260415Z 35008KT 19/14 A2993 RMK A01 T01860135  RH  075%=      5-min Rain = 0
KSE1 260420Z 35008KT 19/14 A2993 RMK A01 T01850136  RH  076%=      5-min Rain = 0
KSE1 260425Z 35010KT 19/13 A2994 RMK A01 T01850134  RH  075%=      5-min Rain = 0
KSE1 260430Z 34009KT 18/14 A2994 RMK A01 T01840135  RH  076%=      5-min Rain = 0
KSE1 260435Z 34010KT 18/14 A2994 RMK A01 T01840135  RH  076%=      5-min Rain = 0
KSE1 260440Z 34009KT 18/14 A2994 RMK A01 T01830135  RH  076%=      5-min Rain = 0
KSE1 260445Z 34008KT 18/14 A2994 RMK A01 T01830135  RH  077%=      5-min Rain = 0
KSE1 260450Z 34008KT 18/14 A2994 RMK A01 T01830135  RH  077%=      5-min Rain = 0
KSE1 260455Z 35007KT 18/14 A2993 RMK A01 T01810136  RH  078%=      5-min Rain = 0

Page generated in 0.0093 seconds.